createdAt,value
2022-09-17T00:01:46.488Z,11.97
2022-09-17T00:04:16.505Z,10.97
2022-09-17T00:06:46.489Z,7.60
2022-09-17T00:09:16.954Z,13.40
2022-09-17T00:11:47.163Z,11.87
2022-09-17T00:14:17.659Z,8.23
2022-09-17T00:16:49.438Z,10.37
2022-09-17T00:19:25.907Z,13.07
2022-09-17T00:21:55.931Z,12.50
2022-09-17T00:24:24.095Z,17.93
2022-09-17T00:26:54.113Z,23.70
2022-09-17T00:29:24.320Z,20.10
2022-09-17T00:31:54.349Z,31.10
2022-09-17T00:34:24.359Z,21.33
2022-09-17T00:36:51.303Z,18.90
2022-09-17T00:39:21.666Z,18.87
2022-09-17T00:41:49.565Z,17.47
2022-09-17T00:44:44.828Z,16.13
2022-09-17T00:47:17.706Z,16.97
2022-09-17T00:49:50.370Z,12.43
2022-09-17T00:52:28.853Z,11.37
2022-09-17T00:55:24.825Z,11.37
2022-09-17T00:57:55.573Z,8.77
2022-09-17T01:00:27.230Z,12.07
2022-09-17T01:02:58.259Z,14.60
2022-09-17T01:05:44.107Z,10.40
2022-09-17T01:08:20.140Z,13.27
2022-09-17T01:11:15.020Z,13.33
2022-09-17T01:14:17.839Z,21.37
2022-09-17T01:17:00.509Z,12.77
2022-09-17T01:20:01.335Z,17.73
2022-09-17T01:22:54.346Z,12.60
2022-09-17T01:25:25.136Z,11.87
2022-09-17T01:28:14.936Z,11.60
2022-09-17T01:30:55.822Z,11.60
2022-09-17T01:33:44.397Z,12.83
2022-09-17T01:36:49.924Z,15.63
2022-09-17T01:39:21.840Z,11.17
2022-09-17T01:41:53.061Z,5.63
2022-09-17T01:44:37.973Z,13.50
2022-09-17T01:47:29.832Z,12.00
2022-09-17T01:50:02.887Z,12.00
2022-09-17T01:52:38.746Z,8.77
2022-09-17T01:55:11.457Z,9.80
2022-09-17T01:57:48.292Z,11.53
2022-09-17T02:00:17.952Z,12.57
2022-09-17T02:03:05.093Z,17.07
2022-09-17T02:05:53.929Z,11.57
2022-09-17T02:08:37.632Z,15.20
2022-09-17T02:11:15.605Z,10.93
2022-09-17T02:13:58.850Z,9.37
2022-09-17T02:16:34.160Z,7.73
2022-09-17T02:19:28.232Z,8.10
2022-09-17T02:22:45.857Z,7.93
2022-09-17T02:25:40.925Z,15.67
2022-09-17T02:28:27.159Z,23.40
2022-09-17T02:30:56.212Z,13.60
2022-09-17T02:33:27.732Z,18.17
2022-09-17T02:35:57.724Z,13.43
2022-09-17T02:38:31.315Z,11.40
2022-09-17T02:41:06.157Z,11.67
2022-09-17T02:43:41.960Z,6.93
2022-09-17T02:46:46.588Z,7.63
2022-09-17T02:49:39.366Z,19.33
2022-09-17T02:52:34.586Z,11.47
2022-09-17T02:55:23.188Z,10.10
2022-09-17T02:58:29.905Z,9.83
2022-09-17T03:01:06.811Z,11.60
2022-09-17T03:03:39.212Z,8.33
2022-09-17T03:06:13.499Z,13.20
2022-09-17T03:08:47.644Z,9.20
2022-09-17T03:11:15.764Z,16.67
2022-09-17T03:13:44.684Z,15.53
2022-09-17T03:16:12.693Z,8.90
2022-09-17T03:18:43.145Z,11.63
2022-09-17T03:21:10.619Z,9.03
2022-09-17T03:23:40.644Z,9.07
2022-09-17T03:26:08.617Z,9.70
2022-09-17T03:28:35.521Z,11.57
2022-09-17T03:31:06.107Z,11.40
2022-09-17T03:33:35.332Z,11.73
2022-09-17T03:36:02.493Z,24.07
2022-09-17T03:38:30.409Z,16.37
2022-09-17T03:41:07.247Z,15.00
2022-09-17T03:43:34.417Z,9.03
2022-09-17T03:46:03.629Z,10.83
2022-09-17T03:48:30.774Z,5.77
2022-09-17T03:50:57.746Z,11.40
2022-09-17T03:53:30.934Z,10.17
2022-09-17T03:56:05.771Z,8.90
2022-09-17T03:58:36.393Z,7.27
2022-09-17T04:01:05.677Z,13.03
2022-09-17T04:03:33.307Z,13.37
2022-09-17T04:06:00.394Z,10.03
2022-09-17T04:08:27.264Z,12.80
2022-09-17T04:10:55.285Z,5.87
2022-09-17T04:13:28.437Z,11.87
2022-09-17T04:15:56.464Z,8.60
2022-09-17T04:18:26.477Z,12.57
2022-09-17T04:20:55.536Z,15.60
2022-09-17T04:23:22.560Z,12.33
2022-09-17T04:25:51.482Z,14.53
2022-09-17T04:28:21.373Z,11.17
2022-09-17T04:30:50.478Z,12.63
2022-09-17T04:33:21.727Z,15.07
2022-09-17T04:35:50.663Z,10.03
2022-09-17T04:38:23.932Z,13.00
2022-09-17T04:40:51.621Z,9.73
2022-09-17T04:43:21.583Z,11.07
2022-09-17T04:45:51.775Z,26.67
2022-09-17T04:48:21.795Z,20.80
2022-09-17T04:50:51.864Z,13.43
2022-09-17T04:53:18.945Z,14.73
2022-09-17T04:55:48.936Z,15.40
2022-09-17T04:58:15.857Z,19.37
2022-09-17T05:00:46.163Z,15.20
2022-09-17T05:03:16.229Z,14.50
2022-09-17T05:05:44.224Z,18.83
2022-09-17T05:08:12.211Z,19.43
2022-09-17T05:10:42.204Z,8.47
2022-09-17T05:13:12.180Z,14.13
2022-09-17T05:15:39.166Z,10.07
2022-09-17T05:18:12.055Z,10.50
2022-09-17T05:20:40.114Z,8.83
2022-09-17T05:23:10.553Z,13.87
2022-09-17T05:25:37.535Z,10.97
2022-09-17T05:28:04.789Z,8.93
2022-09-17T05:30:33.265Z,12.27
2022-09-17T05:33:07.306Z,11.17
2022-09-17T05:35:38.052Z,13.90
2022-09-17T05:38:10.264Z,9.73
2022-09-17T05:40:38.559Z,10.87
2022-09-17T05:43:09.870Z,11.63
2022-09-17T05:45:37.743Z,12.77
2022-09-17T05:48:06.886Z,8.83
2022-09-17T05:50:35.967Z,7.40
2022-09-17T05:53:10.500Z,13.23
2022-09-17T05:55:37.472Z,8.83
2022-09-17T05:58:15.289Z,7.20
2022-09-17T06:00:47.169Z,7.80
2022-09-17T06:03:19.365Z,12.90
2022-09-17T06:05:59.021Z,11.57
2022-09-17T06:08:29.345Z,10.73
2022-09-17T06:11:01.572Z,5.27
2022-09-17T06:13:32.897Z,8.47
2022-09-17T06:16:04.087Z,12.50
2022-09-17T06:18:32.082Z,7.40
2022-09-17T06:21:04.151Z,15.43
2022-09-17T06:23:35.431Z,14.03
2022-09-17T06:26:06.067Z,6.67
2022-09-17T06:28:35.805Z,9.37
2022-09-17T06:31:06.645Z,14.80
2022-09-17T06:33:34.348Z,16.87
2022-09-17T06:36:05.944Z,16.67
2022-09-17T06:38:36.149Z,11.03
2022-09-17T06:41:03.242Z,7.67
2022-09-17T06:43:31.564Z,11.13
2022-09-17T06:46:02.809Z,9.90
2022-09-17T06:48:33.667Z,2.77
2022-09-17T06:51:10.610Z,9.27
2022-09-17T06:53:38.796Z,6.20
2022-09-17T06:56:09.156Z,6.77
2022-09-17T06:58:38.248Z,4.10
2022-09-17T07:01:09.081Z,7.67
2022-09-17T07:03:39.263Z,11.10
2022-09-17T07:06:12.883Z,10.13
2022-09-17T07:08:41.686Z,7.87
2022-09-17T07:11:11.701Z,11.13
2022-09-17T07:13:42.093Z,4.87
2022-09-17T07:16:14.022Z,6.37
2022-09-17T07:18:41.052Z,9.30
2022-09-17T07:21:10.818Z,8.90
2022-09-17T07:23:38.811Z,3.60
2022-09-17T07:26:13.719Z,8.27
2022-09-17T07:28:42.248Z,9.57
2022-09-17T07:31:16.109Z,7.33
2022-09-17T07:33:44.510Z,8.23
2022-09-17T07:36:13.288Z,5.23
2022-09-17T07:38:43.605Z,8.27
2022-09-17T07:41:13.388Z,7.90
2022-09-17T07:43:41.384Z,6.33
2022-09-17T07:46:14.031Z,6.03
2022-09-17T07:48:41.088Z,6.37
2022-09-17T07:51:08.075Z,8.63
2022-09-17T07:53:36.048Z,7.30
2022-09-17T07:56:02.977Z,6.47
2022-09-17T07:58:32.588Z,10.83
2022-09-17T08:01:12.998Z,5.67
2022-09-17T08:03:40.379Z,7.10
2022-09-17T08:06:09.895Z,7.77
2022-09-17T08:08:38.735Z,5.27
2022-09-17T08:11:13.317Z,7.97
2022-09-17T08:13:50.904Z,5.63
2022-09-17T08:16:22.878Z,4.87
2022-09-17T08:18:56.826Z,10.50
2022-09-17T08:21:27.015Z,6.00
2022-09-17T08:23:57.835Z,7.37
2022-09-17T08:26:36.194Z,7.83
2022-09-17T08:29:04.475Z,4.83
2022-09-17T08:31:33.512Z,5.47
2022-09-17T08:34:00.604Z,3.83
2022-09-17T08:36:31.372Z,2.80
2022-09-17T08:39:01.750Z,2.23
2022-09-17T08:42:19.117Z,5.73
2022-09-17T08:44:52.099Z,6.77
2022-09-17T08:47:37.934Z,3.63
2022-09-17T08:50:12.495Z,7.00
2022-09-17T08:53:04.072Z,4.77
2022-09-17T08:55:46.346Z,5.90
2022-09-17T08:58:43.211Z,3.70
2022-09-17T09:01:28.415Z,5.83
2022-09-17T09:04:04.339Z,4.00
2022-09-17T09:06:41.674Z,3.83
2022-09-17T09:09:15.699Z,4.40
2022-09-17T09:11:46.910Z,2.83
2022-09-17T09:14:27.988Z,3.67
2022-09-17T09:16:57.447Z,2.83
2022-09-17T09:19:32.083Z,3.83
2022-09-17T09:22:26.971Z,3.17
2022-09-17T09:25:10.183Z,3.83
2022-09-17T09:27:45.956Z,4.40
2022-09-17T09:30:15.733Z,4.37
2022-09-17T09:33:10.049Z,4.30
2022-09-17T09:35:39.692Z,5.00
2022-09-17T09:38:09.713Z,5.33
2022-09-17T09:40:40.540Z,4.33
2022-09-17T09:43:17.636Z,5.40
2022-09-17T09:46:03.532Z,3.60
2022-09-17T09:49:14.325Z,4.17
2022-09-17T09:51:50.458Z,4.10
2022-09-17T09:54:27.313Z,5.33
2022-09-17T09:56:59.241Z,6.03
2022-09-17T09:59:29.367Z,6.67
2022-09-17T10:01:56.395Z,7.00
2022-09-17T10:04:26.272Z,5.85
2022-09-17T10:07:14.560Z,4.90
2022-09-17T10:09:46.517Z,2.23
2022-09-17T10:12:13.640Z,3.78
2022-09-17T10:14:42.465Z,4.35
2022-09-17T10:17:20.750Z,4.32
2022-09-17T10:20:17.319Z,4.65
2022-09-17T10:22:48.375Z,5.85
2022-09-17T10:25:31.918Z,5.28
2022-09-17T10:28:21.613Z,7.90
2022-09-17T10:31:03.161Z,4.82
2022-09-17T10:33:34.491Z,3.65
2022-09-17T10:36:10.172Z,5.97
2022-09-17T10:38:40.456Z,8.63
2022-09-17T10:41:13.330Z,9.48
2022-09-17T10:43:42.685Z,12.50
2022-09-17T10:46:14.930Z,7.68
2022-09-17T10:49:16.793Z,9.83
2022-09-17T10:51:44.327Z,7.57
2022-09-17T10:54:49.704Z,12.53
2022-09-17T10:57:43.570Z,5.33
2022-09-17T11:00:20.399Z,8.47
2022-09-17T11:03:09.491Z,7.80
2022-09-17T11:05:54.668Z,7.47
2022-09-17T11:08:34.609Z,8.50
2022-09-17T11:11:48.886Z,4.83
2022-09-17T11:14:23.405Z,6.33
2022-09-17T11:16:56.239Z,5.13
2022-09-17T11:19:38.300Z,4.47
2022-09-17T11:22:33.929Z,7.93
2022-09-17T11:25:22.777Z,5.43
2022-09-17T11:28:26.731Z,8.63
2022-09-17T11:31:29.477Z,6.37
2022-09-17T11:34:08.480Z,2.30
2022-09-17T11:37:02.863Z,4.33
2022-09-17T11:40:13.720Z,8.00
2022-09-17T11:42:53.961Z,6.60
2022-09-17T11:45:24.911Z,7.13
2022-09-17T11:47:56.611Z,3.60
2022-09-17T11:50:31.048Z,10.20
2022-09-17T11:53:39.923Z,10.43
2022-09-17T11:56:23.445Z,7.33
2022-09-17T11:59:37.950Z,4.37
2022-09-17T12:02:08.643Z,4.33
2022-09-17T12:05:03.257Z,4.67
2022-09-17T12:08:26.872Z,5.07
2022-09-17T12:11:21.420Z,6.37
2022-09-17T12:13:52.553Z,8.33
2022-09-17T12:16:34.057Z,10.47
2022-09-17T12:19:25.614Z,5.60
2022-09-17T12:22:23.619Z,7.63
2022-09-17T12:24:54.675Z,4.77
2022-09-17T12:27:51.160Z,5.67
2022-09-17T12:30:28.739Z,6.27
2022-09-17T12:33:30.311Z,4.67
2022-09-17T12:36:17.233Z,4.03
2022-09-17T12:38:52.212Z,8.90
2022-09-17T12:41:21.412Z,4.53
2022-09-17T12:43:57.476Z,2.87
2022-09-17T12:46:46.172Z,5.00
2022-09-17T12:49:34.107Z,2.20
2022-09-17T12:52:15.832Z,6.07
2022-09-17T12:55:07.405Z,6.63
2022-09-17T12:57:46.345Z,4.50
2022-09-17T13:00:15.988Z,6.97
2022-09-17T13:03:12.111Z,3.73
2022-09-17T13:06:23.368Z,7.80
2022-09-17T13:09:12.925Z,3.83
2022-09-17T13:12:09.127Z,5.80
2022-09-17T13:15:03.915Z,6.43
2022-09-17T13:18:12.742Z,5.70
2022-09-17T13:21:14.344Z,5.40
2022-09-17T13:23:49.557Z,3.43
2022-09-17T13:26:21.878Z,4.33
2022-09-17T13:28:52.258Z,4.70
2022-09-17T13:31:44.674Z,3.47
2022-09-17T13:34:17.611Z,3.30
2022-09-17T13:36:55.863Z,6.10
2022-09-17T13:39:48.023Z,5.60
2022-09-17T13:42:25.283Z,9.57
2022-09-17T13:45:13.494Z,8.23
2022-09-17T13:48:05.290Z,6.87
2022-09-17T13:50:40.431Z,9.80
2022-09-17T13:53:16.510Z,5.03
2022-09-17T13:55:50.510Z,3.30
2022-09-17T13:58:23.371Z,5.60
2022-09-17T14:01:02.912Z,18.10
2022-09-17T14:03:33.749Z,5.87
2022-09-17T14:06:09.692Z,8.13
2022-09-17T14:08:46.734Z,14.90
2022-09-17T14:11:23.008Z,13.40
2022-09-17T14:13:58.729Z,10.17
2022-09-17T14:16:46.229Z,3.20
2022-09-17T14:19:16.326Z,3.90
2022-09-17T14:22:02.816Z,3.97
2022-09-17T14:24:52.468Z,8.90
2022-09-17T14:27:42.545Z,4.10
2022-09-17T14:30:34.481Z,6.53
2022-09-17T14:33:19.463Z,9.90
2022-09-17T14:35:49.363Z,5.77
2022-09-17T14:38:39.539Z,3.13
2022-09-17T14:41:14.260Z,6.07
2022-09-17T14:43:42.289Z,7.33
2022-09-17T14:46:25.278Z,10.33
2022-09-17T14:48:52.707Z,4.13
2022-09-17T14:51:26.275Z,4.70
2022-09-17T14:54:19.681Z,7.37
2022-09-17T14:57:03.801Z,6.97
2022-09-17T14:59:43.655Z,8.43
2022-09-17T15:02:28.805Z,9.97
2022-09-17T15:04:56.104Z,9.53
2022-09-17T15:07:26.440Z,7.60
2022-09-17T15:09:55.639Z,9.87
2022-09-17T15:12:30.142Z,4.50
2022-09-17T15:14:58.705Z,9.77
2022-09-17T15:17:27.842Z,8.10
2022-09-17T15:19:58.192Z,9.80
2022-09-17T15:22:36.949Z,10.23
2022-09-17T15:25:11.459Z,8.73
2022-09-17T15:27:45.983Z,17.40
2022-09-17T15:30:23.773Z,6.57
2022-09-17T15:32:59.155Z,6.93
2022-09-17T15:35:30.647Z,11.20
2022-09-17T15:38:26.467Z,9.87
2022-09-17T15:40:54.178Z,10.60
2022-09-17T15:43:30.417Z,10.47
2022-09-17T15:46:19.013Z,7.53
2022-09-17T15:48:49.141Z,6.30
2022-09-17T15:51:30.084Z,7.73
2022-09-17T15:54:04.996Z,14.83
2022-09-17T15:56:41.443Z,8.87
2022-09-17T15:59:23.161Z,13.13
2022-09-17T16:01:54.142Z,21.30
2022-09-17T16:04:35.067Z,14.53
2022-09-17T16:07:02.009Z,12.40
2022-09-17T16:09:47.998Z,18.03
2022-09-17T16:12:19.645Z,16.67
2022-09-17T16:14:55.660Z,16.53
2022-09-17T16:17:25.323Z,6.60
2022-09-17T16:19:54.903Z,19.57
2022-09-17T16:22:26.522Z,15.13
2022-09-17T16:24:56.550Z,14.43
2022-09-17T16:27:30.203Z,15.83
2022-09-17T16:30:04.880Z,7.13
2022-09-17T16:32:31.954Z,12.77
2022-09-17T16:34:59.639Z,12.57
2022-09-17T16:37:26.619Z,11.67
2022-09-17T16:39:54.561Z,6.33
2022-09-17T16:42:21.445Z,7.47
2022-09-17T16:44:50.454Z,6.87
2022-09-17T16:47:18.586Z,6.50
2022-09-17T16:49:47.545Z,8.23
2022-09-17T16:52:16.528Z,8.43
2022-09-17T16:54:45.504Z,12.23
2022-09-17T16:57:15.478Z,8.13
2022-09-17T16:59:48.463Z,8.83
2022-09-17T17:02:18.480Z,9.47
2022-09-17T17:04:47.519Z,6.50
2022-09-17T17:07:16.650Z,10.53
2022-09-17T17:09:43.638Z,12.33
2022-09-17T17:12:10.566Z,6.90
2022-09-17T17:14:37.444Z,11.53
2022-09-17T17:17:05.016Z,10.17
2022-09-17T17:19:32.052Z,6.90
2022-09-17T17:21:59.087Z,9.07
2022-09-17T17:24:26.032Z,12.00
2022-09-17T17:26:54.003Z,11.33
2022-09-17T17:29:20.866Z,8.47
2022-09-17T17:31:49.594Z,7.33
2022-09-17T17:34:17.006Z,8.97
2022-09-17T17:36:44.142Z,10.90
2022-09-17T17:39:12.077Z,12.23
2022-09-17T17:41:38.955Z,7.27
2022-09-17T17:44:05.858Z,16.80
2022-09-17T17:46:32.856Z,15.20
2022-09-17T17:48:59.839Z,6.63
2022-09-17T17:51:27.386Z,7.67
2022-09-17T17:53:54.303Z,7.70
2022-09-17T17:56:21.225Z,9.13
2022-09-17T17:58:53.911Z,9.80
2022-09-17T18:01:27.033Z,7.23
2022-09-17T18:03:59.884Z,5.67
2022-09-17T18:06:30.697Z,5.57
2022-09-17T18:09:00.372Z,7.50
2022-09-17T18:11:30.966Z,9.27
2022-09-17T18:14:02.008Z,6.00
2022-09-17T18:16:32.033Z,6.77
2022-09-17T18:19:04.307Z,6.63
2022-09-17T18:21:33.417Z,8.87
2022-09-17T18:24:01.423Z,10.37
2022-09-17T18:26:29.111Z,10.10
2022-09-17T18:28:59.114Z,7.47
2022-09-17T18:31:33.119Z,12.40
2022-09-17T18:34:07.601Z,7.07
2022-09-17T18:36:38.956Z,9.67
2022-09-17T18:42:01.757Z,9.43
2022-09-17T18:44:30.759Z,4.47
2022-09-17T18:46:57.723Z,7.03
2022-09-17T18:49:24.719Z,5.87
2022-09-17T18:51:53.696Z,8.03
2022-09-17T18:54:22.645Z,5.90
2022-09-17T18:56:52.867Z,4.97
2022-09-17T18:59:19.731Z,9.77
2022-09-17T19:01:48.467Z,4.33
2022-09-17T19:04:15.581Z,14.63
2022-09-17T19:06:44.512Z,3.27
2022-09-17T19:09:13.483Z,8.27
2022-09-17T19:11:40.492Z,4.70
2022-09-17T19:14:10.788Z,7.40
2022-09-17T19:16:43.934Z,9.97
2022-09-17T19:19:11.370Z,8.23
2022-09-17T19:21:42.385Z,6.63
2022-09-17T19:24:10.614Z,6.87
2022-09-17T19:26:38.452Z,8.37
2022-09-17T19:29:07.261Z,4.07
2022-09-17T19:31:35.438Z,4.70
2022-09-17T19:34:02.741Z,3.60
2022-09-17T19:36:33.144Z,5.30
2022-09-17T19:39:00.204Z,4.90
2022-09-17T19:41:28.305Z,4.70
2022-09-17T19:43:58.647Z,3.37
2022-09-17T19:46:27.926Z,5.17
2022-09-17T19:48:58.619Z,4.17
2022-09-17T19:51:29.036Z,7.63
2022-09-17T19:53:56.642Z,6.67
2022-09-17T19:56:26.746Z,4.20
2022-09-17T19:58:56.819Z,7.07
2022-09-17T20:01:25.951Z,3.37
2022-09-17T20:03:53.930Z,9.20
2022-09-17T20:06:24.182Z,5.07
2022-09-17T20:08:54.940Z,5.20
2022-09-17T20:11:24.083Z,8.37
2022-09-17T20:14:10.496Z,3.27
2022-09-17T20:16:38.749Z,7.20
2022-09-17T20:19:09.966Z,5.30
2022-09-17T20:21:36.972Z,4.63
2022-09-17T20:24:07.426Z,5.83
2022-09-17T20:26:37.877Z,3.43
2022-09-17T20:29:07.749Z,5.13
2022-09-17T20:31:37.822Z,5.27
2022-09-17T20:34:05.429Z,4.60
2022-09-17T20:36:36.165Z,8.30
2022-09-17T20:39:17.952Z,8.07
2022-09-17T20:41:54.188Z,4.43
2022-09-17T20:44:23.173Z,6.37
2022-09-17T20:46:52.163Z,4.53
2022-09-17T20:49:22.162Z,3.80
2022-09-17T20:51:49.805Z,6.03
2022-09-17T20:54:16.757Z,4.27
2022-09-17T20:56:43.796Z,4.87
2022-09-17T20:59:18.016Z,12.33
2022-09-17T21:01:47.251Z,5.77
2022-09-17T21:04:19.576Z,5.47
2022-09-17T21:06:53.225Z,7.70
2022-09-17T21:09:23.719Z,2.40
2022-09-17T21:11:50.760Z,7.47
2022-09-17T21:14:18.552Z,4.50
2022-09-17T21:16:54.627Z,5.23
2022-09-17T21:19:25.512Z,6.10
2022-09-17T21:21:56.455Z,6.20
2022-09-17T21:24:26.540Z,4.27
2022-09-17T21:26:56.516Z,4.13
2022-09-17T21:29:23.452Z,2.50
2022-09-17T21:31:56.946Z,5.70
2022-09-17T21:34:24.919Z,7.37
2022-09-17T21:36:53.886Z,4.13
2022-09-17T21:39:23.791Z,4.23
2022-09-17T21:41:54.629Z,3.27
2022-09-17T21:44:24.914Z,4.87
2022-09-17T21:46:56.940Z,6.13
2022-09-17T21:49:27.087Z,4.23
2022-09-17T21:51:57.082Z,4.80
2022-09-17T21:54:27.183Z,3.90
2022-09-17T21:56:56.040Z,3.47
2022-09-17T21:59:25.290Z,3.87
2022-09-17T22:01:53.224Z,8.30
2022-09-17T22:04:22.429Z,4.30
2022-09-17T22:06:50.357Z,3.67
2022-09-17T22:09:23.068Z,4.17
2022-09-17T22:11:53.657Z,4.67
2022-09-17T22:14:24.756Z,3.00
2022-09-17T22:16:57.141Z,3.53
2022-09-17T22:19:27.312Z,2.23
2022-09-17T22:21:57.412Z,5.43
2022-09-17T22:24:26.684Z,2.30
2022-09-17T22:26:57.659Z,6.00
2022-09-17T22:29:28.575Z,2.47
2022-09-17T22:31:58.649Z,3.70
2022-09-17T22:34:26.616Z,4.10
2022-09-17T22:36:55.637Z,2.87
2022-09-17T22:39:22.978Z,5.23
2022-09-17T22:41:52.951Z,3.47
2022-09-17T22:44:23.633Z,4.13
2022-09-17T22:46:52.236Z,2.23
2022-09-17T22:49:21.310Z,6.73
2022-09-17T22:51:48.326Z,2.40
2022-09-17T22:54:19.142Z,2.40
2022-09-17T22:56:49.058Z,4.20
2022-09-17T22:59:22.162Z,3.57
2022-09-17T23:01:52.267Z,1.73
2022-09-17T23:04:22.315Z,4.40
2022-09-17T23:06:52.361Z,5.70
2022-09-17T23:09:21.337Z,4.70
2022-09-17T23:11:51.323Z,2.90
2022-09-17T23:14:20.398Z,2.60
2022-09-17T23:16:49.722Z,4.10
2022-09-17T23:19:18.670Z,3.40
2022-09-17T23:21:48.823Z,3.37
2022-09-17T23:24:20.368Z,3.57
2022-09-17T23:26:50.848Z,3.87
2022-09-17T23:29:19.072Z,4.47
2022-09-17T23:31:48.183Z,2.60
2022-09-17T23:34:17.155Z,4.13
2022-09-17T23:36:45.198Z,2.10
2022-09-17T23:39:15.211Z,7.30
2022-09-17T23:41:44.924Z,2.17
2022-09-17T23:44:16.043Z,6.50
2022-09-17T23:46:46.313Z,3.23
2022-09-17T23:49:15.195Z,2.30
2022-09-17T23:51:45.684Z,1.53
2022-09-17T23:54:12.771Z,2.17
2022-09-17T23:56:39.754Z,1.27
2022-09-17T23:59:10.916Z,4.57
